createdAt,value
2023-02-09T00:01:47.506Z,-1.62
2023-02-09T00:04:15.570Z,-1.66
2023-02-09T00:06:45.065Z,-1.67
2023-02-09T00:09:12.777Z,-1.75
2023-02-09T00:11:58.351Z,-1.78
2023-02-09T00:14:26.858Z,-1.81
2023-02-09T00:16:55.562Z,-1.86
2023-02-09T00:19:23.625Z,-1.92
2023-02-09T00:21:53.196Z,-1.93
2023-02-09T00:24:21.311Z,-1.88
2023-02-09T00:26:49.432Z,-1.88
2023-02-09T00:29:22.915Z,-1.83
2023-02-09T00:31:53.935Z,-1.86
2023-02-09T00:34:23.026Z,-1.86
2023-02-09T00:36:54.388Z,-1.87
2023-02-09T00:39:25.041Z,-1.88
2023-02-09T00:42:11.741Z,-1.88
2023-02-09T00:44:43.311Z,-1.90
2023-02-09T00:47:13.382Z,-1.92
2023-02-09T00:49:42.453Z,-1.95
2023-02-09T00:52:14.183Z,-1.96
2023-02-09T00:54:44.248Z,-1.91
2023-02-09T00:57:14.884Z,-1.95
2023-02-09T00:59:42.568Z,-2.02
2023-02-09T01:02:10.443Z,-2.06
2023-02-09T01:04:40.110Z,-2.09
2023-02-09T01:07:07.863Z,-2.11
2023-02-09T01:09:37.149Z,-2.15
2023-02-09T01:12:08.330Z,-2.18
2023-02-09T01:14:39.832Z,-2.17
2023-02-09T01:17:07.669Z,-2.15
2023-02-09T01:19:36.029Z,-2.15
2023-02-09T01:22:04.898Z,-2.14
2023-02-09T01:24:32.860Z,-2.15
2023-02-09T01:27:01.920Z,-2.18
2023-02-09T01:29:32.109Z,-2.19
2023-02-09T01:32:00.018Z,-2.21
2023-02-09T01:34:27.911Z,-2.22
2023-02-09T01:36:55.638Z,-2.26
2023-02-09T01:39:23.530Z,-2.24
2023-02-09T01:41:51.401Z,-2.28
2023-02-09T01:44:56.599Z,-2.30
2023-02-09T01:47:25.737Z,-2.31
2023-02-09T01:49:53.872Z,-2.39
2023-02-09T01:52:26.961Z,-2.38
2023-02-09T01:54:58.556Z,-2.39
2023-02-09T01:57:30.686Z,-2.42
2023-02-09T02:00:03.797Z,-2.43
2023-02-09T02:02:46.170Z,-2.44
2023-02-09T02:05:14.551Z,-2.46
2023-02-09T02:07:47.395Z,-2.48
2023-02-09T02:10:15.304Z,-2.52
2023-02-09T02:12:43.737Z,-2.58
2023-02-09T02:15:12.940Z,-2.60
2023-02-09T02:17:57.058Z,-2.65
2023-02-09T02:20:55.029Z,-2.66
2023-02-09T02:23:31.456Z,-2.74
2023-02-09T02:26:35.479Z,-2.72
2023-02-09T02:29:25.306Z,-2.66
2023-02-09T02:32:16.905Z,-2.63
2023-02-09T02:34:51.593Z,-2.74
2023-02-09T02:37:38.494Z,-2.80
2023-02-09T02:40:17.744Z,-2.93
2023-02-09T02:42:52.858Z,-2.93
2023-02-09T02:45:36.038Z,-2.98
2023-02-09T02:48:14.379Z,-2.94
2023-02-09T02:50:50.486Z,-2.97
2023-02-09T02:53:21.496Z,-3.03
2023-02-09T02:55:51.198Z,-3.08
2023-02-09T02:58:23.001Z,-3.26
2023-02-09T03:00:53.624Z,-3.26
2023-02-09T03:03:27.606Z,-3.33
2023-02-09T03:05:56.352Z,-3.38
2023-02-09T03:08:24.329Z,-3.37
2023-02-09T03:10:52.267Z,-3.39
2023-02-09T03:13:33.571Z,-3.50
2023-02-09T03:16:17.086Z,-3.46
2023-02-09T03:18:58.507Z,-3.54
2023-02-09T03:21:39.105Z,-3.50
2023-02-09T03:24:14.262Z,-3.48
2023-02-09T03:26:47.946Z,-3.48
2023-02-09T03:29:17.752Z,-3.43
2023-02-09T03:31:46.323Z,-3.49
2023-02-09T03:34:16.581Z,-3.50
2023-02-09T03:36:46.693Z,-3.48
2023-02-09T03:39:14.493Z,-3.47
2023-02-09T03:41:42.321Z,-3.36
2023-02-09T03:44:28.320Z,-3.31
2023-02-09T03:46:58.289Z,-3.37
2023-02-09T03:49:29.343Z,-3.36
2023-02-09T03:51:57.100Z,-3.37
2023-02-09T03:54:24.885Z,-3.36
2023-02-09T03:56:52.643Z,-3.31
2023-02-09T03:59:20.961Z,-3.29
2023-02-09T04:01:48.764Z,-3.26
2023-02-09T04:04:16.515Z,-3.27
2023-02-09T04:06:46.200Z,-3.23
2023-02-09T04:09:14.760Z,-3.18
2023-02-09T04:11:42.659Z,-3.24
2023-02-09T04:14:10.768Z,-3.35
2023-02-09T04:16:39.145Z,-3.37
2023-02-09T04:19:09.492Z,-3.41
2023-02-09T04:21:37.487Z,-3.36
2023-02-09T04:24:08.199Z,-3.36
2023-02-09T04:26:36.726Z,-3.38
2023-02-09T04:29:04.926Z,-3.40
2023-02-09T04:31:33.023Z,-3.43
2023-02-09T04:34:00.962Z,-3.47
2023-02-09T04:36:29.348Z,-3.54
2023-02-09T04:38:56.963Z,-3.57
2023-02-09T04:41:26.186Z,-3.55
2023-02-09T04:43:53.938Z,-3.58
2023-02-09T04:46:21.608Z,-3.61
2023-02-09T04:48:49.313Z,-3.64
2023-02-09T04:51:17.072Z,-3.65
2023-02-09T04:53:44.810Z,-3.72
2023-02-09T04:56:15.377Z,-3.74
2023-02-09T04:59:03.157Z,-3.78
2023-02-09T05:01:32.688Z,-3.82
2023-02-09T05:04:00.509Z,-3.84
2023-02-09T05:06:28.460Z,-3.83
2023-02-09T05:08:56.262Z,-3.86
2023-02-09T05:11:25.665Z,-3.93
2023-02-09T05:13:54.891Z,-4.19
2023-02-09T05:16:22.679Z,-4.15
2023-02-09T05:18:51.308Z,-4.16
2023-02-09T05:21:18.965Z,-4.35
2023-02-09T05:23:49.838Z,-4.58
2023-02-09T05:26:17.564Z,-4.48
2023-02-09T05:28:45.192Z,-4.56
2023-02-09T05:31:14.395Z,-4.62
2023-02-09T05:33:42.385Z,-4.67
2023-02-09T05:36:12.600Z,-4.64
2023-02-09T05:38:41.013Z,-4.73
2023-02-09T05:41:11.055Z,-4.73
2023-02-09T05:43:39.391Z,-4.69
2023-02-09T05:46:08.452Z,-4.63
2023-02-09T05:48:37.924Z,-4.56
2023-02-09T05:51:06.474Z,-4.60
2023-02-09T05:53:34.205Z,-4.57
2023-02-09T05:56:01.929Z,-4.56
2023-02-09T05:58:29.739Z,-4.49
2023-02-09T06:00:58.179Z,-4.55
2023-02-09T06:03:25.895Z,-4.60
2023-02-09T06:05:55.009Z,-4.62
2023-02-09T06:08:22.731Z,-4.46
2023-02-09T06:10:50.529Z,-4.41
2023-02-09T06:13:18.268Z,-4.46
2023-02-09T06:15:46.173Z,-4.52
2023-02-09T06:18:13.946Z,-4.52
2023-02-09T06:20:42.110Z,-4.53
2023-02-09T06:23:11.465Z,-4.55
2023-02-09T06:25:39.989Z,-4.63
2023-02-09T06:28:08.246Z,-4.62
2023-02-09T06:30:36.245Z,-4.66
2023-02-09T06:33:04.208Z,-4.76
2023-02-09T06:35:32.127Z,-4.91
2023-02-09T06:38:04.678Z,-5.06
2023-02-09T06:40:33.977Z,-5.11
2023-02-09T06:43:04.627Z,-5.15
2023-02-09T06:45:33.928Z,-5.20
2023-02-09T06:48:01.752Z,-5.07
2023-02-09T06:50:29.620Z,-4.86
2023-02-09T06:52:58.641Z,-4.77
2023-02-09T06:55:26.797Z,-4.74
2023-02-09T06:57:57.350Z,-4.65
2023-02-09T07:00:25.716Z,-4.56
2023-02-09T07:02:54.108Z,-4.53
2023-02-09T07:05:22.426Z,-4.47
2023-02-09T07:07:50.254Z,-4.42
2023-02-09T07:10:19.671Z,-4.34
2023-02-09T07:12:47.958Z,-4.25
2023-02-09T07:15:17.545Z,-4.19
2023-02-09T07:17:45.326Z,-4.10
2023-02-09T07:20:13.830Z,-4.02
2023-02-09T07:22:41.960Z,-3.94
2023-02-09T07:25:10.413Z,-3.85
2023-02-09T07:27:38.117Z,-3.74
2023-02-09T07:30:06.469Z,-3.74
2023-02-09T07:32:35.476Z,-3.73
2023-02-09T07:35:03.269Z,-3.69
2023-02-09T07:37:31.163Z,-3.68
2023-02-09T07:39:59.687Z,-3.68
2023-02-09T07:42:27.453Z,-3.65
2023-02-09T07:45:02.144Z,-3.61
2023-02-09T07:47:30.035Z,-3.54
2023-02-09T07:49:59.367Z,-3.49
2023-02-09T07:52:27.144Z,-3.41
2023-02-09T07:54:54.877Z,-3.33
2023-02-09T07:57:22.878Z,-3.22
2023-02-09T07:59:50.593Z,-3.15
2023-02-09T08:02:28.750Z,-3.07
2023-02-09T08:05:01.766Z,-2.94
2023-02-09T08:07:31.754Z,-2.88
2023-02-09T08:09:59.798Z,-2.83
2023-02-09T08:12:44.698Z,-2.80
2023-02-09T08:15:16.615Z,-2.75
2023-02-09T08:17:44.585Z,-2.61
2023-02-09T08:20:17.677Z,-2.53
2023-02-09T08:22:49.849Z,-2.42
2023-02-09T08:25:21.087Z,-2.40
2023-02-09T08:27:49.000Z,-2.27
2023-02-09T08:30:18.528Z,-2.34
2023-02-09T08:32:46.748Z,-2.40
2023-02-09T08:35:16.035Z,-2.22
2023-02-09T08:37:43.778Z,-2.17
2023-02-09T08:40:12.486Z,-2.03
2023-02-09T08:42:40.151Z,-1.86
2023-02-09T08:45:08.796Z,-1.76
2023-02-09T08:47:36.594Z,-1.61
2023-02-09T08:50:06.545Z,-1.61
2023-02-09T08:52:35.924Z,-1.57
2023-02-09T08:55:03.875Z,-1.40
2023-02-09T08:57:43.187Z,-1.26
2023-02-09T09:00:13.583Z,-1.19
2023-02-09T09:02:41.296Z,-1.21
2023-02-09T09:05:09.287Z,-1.09
2023-02-09T09:07:38.431Z,-0.94
2023-02-09T09:10:08.765Z,-1.23
2023-02-09T09:12:37.576Z,-1.26
2023-02-09T09:15:06.260Z,-1.16
2023-02-09T09:17:33.977Z,-0.99
2023-02-09T09:20:01.725Z,-0.85
2023-02-09T09:22:29.707Z,-0.91
2023-02-09T09:24:58.854Z,-0.76
2023-02-09T09:27:27.122Z,-0.71
2023-02-09T09:29:55.091Z,-0.96
2023-02-09T09:32:24.968Z,-0.83
2023-02-09T09:34:54.036Z,-0.62
2023-02-09T09:37:22.575Z,-0.42
2023-02-09T09:39:50.730Z,-0.36
2023-02-09T09:42:26.069Z,-0.28
2023-02-09T09:44:54.208Z,-0.21
2023-02-09T09:47:27.523Z,-0.01
2023-02-09T09:49:55.320Z,-0.03
2023-02-09T09:52:31.088Z,-0.02
2023-02-09T09:54:59.317Z,-0.02
2023-02-09T09:57:31.016Z,0.02
2023-02-09T09:59:59.283Z,0.11
2023-02-09T10:02:31.022Z,0.10
2023-02-09T10:05:16.378Z,0.20
2023-02-09T10:07:49.699Z,0.33
2023-02-09T10:10:24.820Z,0.39
2023-02-09T10:12:56.728Z,0.54
2023-02-09T10:15:30.624Z,0.64
2023-02-09T10:17:59.855Z,0.43
2023-02-09T10:20:44.238Z,0.67
2023-02-09T10:23:21.563Z,0.67
2023-02-09T10:25:55.795Z,0.79
2023-02-09T10:28:27.757Z,0.75
2023-02-09T10:30:57.551Z,0.85
2023-02-09T10:33:26.169Z,0.86
2023-02-09T10:35:56.377Z,0.98
2023-02-09T10:38:29.702Z,1.01
2023-02-09T10:40:59.815Z,0.94
2023-02-09T10:43:32.250Z,0.84
2023-02-09T10:46:03.631Z,0.82
2023-02-09T10:48:41.650Z,1.00
2023-02-09T10:51:15.071Z,1.16
2023-02-09T10:53:59.745Z,1.37
2023-02-09T10:56:28.803Z,1.41
2023-02-09T10:59:03.505Z,1.42
2023-02-09T11:01:35.381Z,1.63
2023-02-09T11:04:06.565Z,1.66
2023-02-09T11:06:43.599Z,1.81
2023-02-09T11:09:16.378Z,1.78
2023-02-09T11:11:45.093Z,1.76
2023-02-09T11:14:16.433Z,1.78
2023-02-09T11:17:01.578Z,1.84
2023-02-09T11:20:05.750Z,1.81
2023-02-09T11:22:59.406Z,1.96
2023-02-09T11:25:29.862Z,1.98
2023-02-09T11:28:10.885Z,1.85
2023-02-09T11:31:01.786Z,2.06
2023-02-09T11:33:39.947Z,1.97
2023-02-09T11:36:21.298Z,1.84
2023-02-09T11:38:54.176Z,1.91
2023-02-09T11:41:47.838Z,1.98
2023-02-09T11:44:25.696Z,2.17
2023-02-09T11:47:04.461Z,2.33
2023-02-09T11:49:43.024Z,2.34
2023-02-09T11:52:15.236Z,2.15
2023-02-09T11:54:47.588Z,1.94
2023-02-09T11:57:27.689Z,2.12
2023-02-09T11:59:58.657Z,2.37
2023-02-09T12:02:42.090Z,2.65
2023-02-09T12:05:13.312Z,2.68
2023-02-09T12:07:44.795Z,2.93
2023-02-09T12:10:20.743Z,3.33
2023-02-09T12:12:54.720Z,3.59
2023-02-09T12:15:25.878Z,3.68
2023-02-09T12:18:00.191Z,3.80
2023-02-09T12:20:32.332Z,4.01
2023-02-09T12:23:07.745Z,4.13
2023-02-09T12:25:51.582Z,4.17
2023-02-09T12:28:41.311Z,4.31
2023-02-09T12:31:16.233Z,3.68
2023-02-09T12:34:13.383Z,3.62
2023-02-09T12:37:02.915Z,4.08
2023-02-09T12:39:34.980Z,4.33
2023-02-09T12:42:26.994Z,4.08
2023-02-09T12:44:57.868Z,4.44
2023-02-09T12:47:43.731Z,4.39
2023-02-09T12:50:28.189Z,4.55
2023-02-09T12:53:32.204Z,4.97
2023-02-09T12:56:03.034Z,5.00
2023-02-09T12:58:39.132Z,4.95
2023-02-09T13:01:07.550Z,5.10
2023-02-09T13:03:43.496Z,4.41
2023-02-09T13:06:28.498Z,4.71
2023-02-09T13:08:59.579Z,4.55
2023-02-09T13:11:31.346Z,4.52
2023-02-09T13:14:03.250Z,4.49
2023-02-09T13:17:02.134Z,4.28
2023-02-09T13:19:53.175Z,4.35
2023-02-09T13:22:31.980Z,4.36
2023-02-09T13:25:02.830Z,4.50
2023-02-09T13:27:34.014Z,4.64
2023-02-09T13:30:01.743Z,4.51
2023-02-09T13:32:50.667Z,4.55
2023-02-09T13:35:25.182Z,4.50
2023-02-09T13:37:57.597Z,4.29
2023-02-09T13:40:27.460Z,4.10
2023-02-09T13:42:58.206Z,4.18
2023-02-09T13:45:28.070Z,4.13
2023-02-09T13:47:56.961Z,4.12
2023-02-09T13:50:28.156Z,4.07
2023-02-09T13:53:09.203Z,3.95
2023-02-09T13:55:39.867Z,3.94
2023-02-09T13:58:10.015Z,3.69
2023-02-09T14:00:42.332Z,3.49
2023-02-09T14:03:16.415Z,3.61
2023-02-09T14:05:52.410Z,3.67
2023-02-09T14:08:22.211Z,3.71
2023-02-09T14:10:56.023Z,3.83
2023-02-09T14:13:28.755Z,3.78
2023-02-09T14:16:09.279Z,3.77
2023-02-09T14:18:50.293Z,3.82
2023-02-09T14:21:22.439Z,3.89
2023-02-09T14:24:16.628Z,3.92
2023-02-09T14:26:47.727Z,3.93
2023-02-09T14:29:19.010Z,3.95
2023-02-09T14:31:49.147Z,4.06
2023-02-09T14:34:27.991Z,4.01
2023-02-09T14:36:58.247Z,3.96
2023-02-09T14:39:31.281Z,3.91
2023-02-09T14:42:14.874Z,3.92
2023-02-09T14:44:47.248Z,3.87
2023-02-09T14:47:29.685Z,3.80
2023-02-09T14:49:58.840Z,3.87
2023-02-09T14:52:29.450Z,3.93
2023-02-09T14:55:01.421Z,3.98
2023-02-09T14:57:32.030Z,3.86
2023-02-09T15:00:00.190Z,3.69
2023-02-09T15:02:28.999Z,3.63
2023-02-09T15:04:56.873Z,3.52
2023-02-09T15:07:33.025Z,3.56
2023-02-09T15:10:02.747Z,3.57
2023-02-09T15:12:30.807Z,3.61
2023-02-09T15:15:01.352Z,3.50
2023-02-09T15:17:30.961Z,3.40
2023-02-09T15:19:59.789Z,3.33
2023-02-09T15:22:27.703Z,3.29
2023-02-09T15:24:55.494Z,3.24
2023-02-09T15:27:27.692Z,3.20
2023-02-09T15:29:59.402Z,3.14
2023-02-09T15:32:28.509Z,3.11
2023-02-09T15:34:56.339Z,3.08
2023-02-09T15:37:26.522Z,3.12
2023-02-09T15:39:57.284Z,3.03
2023-02-09T15:42:44.487Z,2.98
2023-02-09T15:45:35.000Z,2.90
2023-02-09T15:48:03.469Z,2.81
2023-02-09T15:50:32.821Z,2.67
2023-02-09T15:53:04.043Z,2.62
2023-02-09T15:55:32.083Z,2.58
2023-02-09T15:58:01.553Z,2.48
2023-02-09T16:00:31.447Z,2.41
2023-02-09T16:03:01.139Z,2.21
2023-02-09T16:05:30.595Z,2.00
2023-02-09T16:08:00.693Z,1.93
2023-02-09T16:10:30.310Z,1.78
2023-02-09T16:12:58.552Z,1.70
2023-02-09T16:15:28.543Z,1.60
2023-02-09T16:17:56.298Z,1.52
2023-02-09T16:20:25.990Z,1.45
2023-02-09T16:22:55.653Z,1.33
2023-02-09T16:25:25.707Z,1.22
2023-02-09T16:27:55.200Z,1.18
2023-02-09T16:30:25.892Z,1.10
2023-02-09T16:32:55.796Z,1.19
2023-02-09T16:35:25.328Z,1.22
2023-02-09T16:37:56.044Z,1.09
2023-02-09T16:40:27.469Z,0.90
2023-02-09T16:42:57.744Z,0.87
2023-02-09T16:45:27.150Z,0.96
2023-02-09T16:47:59.426Z,0.79
2023-02-09T16:50:33.072Z,0.64
2023-02-09T16:53:02.926Z,0.55
2023-02-09T16:55:32.473Z,0.46
2023-02-09T16:58:02.137Z,0.50
2023-02-09T17:00:33.293Z,0.48
2023-02-09T17:03:13.993Z,0.45
2023-02-09T17:05:42.992Z,0.51
2023-02-09T17:08:17.104Z,0.49
2023-02-09T17:10:46.333Z,0.52
2023-02-09T17:13:17.322Z,0.42
2023-02-09T17:15:46.957Z,0.33
2023-02-09T17:18:18.892Z,0.24
2023-02-09T17:20:50.784Z,0.19
2023-02-09T17:23:22.871Z,0.18
2023-02-09T17:25:54.925Z,0.19
2023-02-09T17:28:23.196Z,0.16
2023-02-09T17:30:53.244Z,0.19
2023-02-09T17:33:24.731Z,0.18
2023-02-09T17:36:23.946Z,0.21
2023-02-09T17:38:41.800Z,0.23
2023-02-09T17:41:15.774Z,0.24
2023-02-09T17:43:43.572Z,0.31
2023-02-09T17:46:13.125Z,0.36
2023-02-09T17:48:42.288Z,0.41
2023-02-09T17:51:19.936Z,0.41
2023-02-09T17:53:48.763Z,0.34
2023-02-09T17:56:17.020Z,0.29
2023-02-09T17:58:45.342Z,0.25
2023-02-09T18:01:26.430Z,0.18
2023-02-09T18:03:57.736Z,0.17
2023-02-09T18:06:33.652Z,0.16
2023-02-09T18:09:02.478Z,0.18
2023-02-09T18:11:42.035Z,0.13
2023-02-09T18:14:13.108Z,0.12
2023-02-09T18:16:41.230Z,0.17
2023-02-09T18:19:10.717Z,0.16
2023-02-09T18:21:38.807Z,0.11
2023-02-09T18:24:07.883Z,0.04
2023-02-09T18:26:35.785Z,-0.03
2023-02-09T18:29:03.563Z,-0.05
2023-02-09T18:31:31.371Z,-0.10
2023-02-09T18:33:59.064Z,-0.15
2023-02-09T18:36:28.379Z,-0.18
2023-02-09T18:38:56.062Z,-0.19
2023-02-09T18:41:24.798Z,-0.22
2023-02-09T18:43:54.385Z,-0.23
2023-02-09T18:46:24.546Z,-0.25
2023-02-09T18:48:52.797Z,-0.30
2023-02-09T18:51:20.959Z,-0.33
2023-02-09T18:53:51.276Z,-0.35
2023-02-09T18:56:20.280Z,-0.35
2023-02-09T18:58:50.316Z,-0.29
2023-02-09T19:01:20.654Z,-0.27
2023-02-09T19:03:50.724Z,-0.22
2023-02-09T19:06:20.418Z,-0.22
2023-02-09T19:08:50.605Z,-0.20
2023-02-09T19:11:20.878Z,-0.18
2023-02-09T19:14:09.791Z,-0.12
2023-02-09T19:16:40.930Z,-0.09
2023-02-09T19:19:12.284Z,0.01
2023-02-09T19:21:40.072Z,0.10
2023-02-09T19:24:10.548Z,0.06
2023-02-09T19:26:38.150Z,0.04
2023-02-09T19:29:06.724Z,0.09
2023-02-09T19:31:34.529Z,0.04
2023-02-09T19:34:02.973Z,0.00
2023-02-09T19:36:31.191Z,-0.04
2023-02-09T19:39:00.388Z,0.02
2023-02-09T19:41:29.534Z,0.07
2023-02-09T19:43:57.688Z,0.12
2023-02-09T19:46:26.706Z,0.17
2023-02-09T19:48:54.697Z,0.14
2023-02-09T19:51:23.174Z,0.15
2023-02-09T19:53:51.977Z,0.02
2023-02-09T19:56:23.641Z,-0.06
2023-02-09T19:58:53.648Z,-0.15
2023-02-09T20:01:22.252Z,-0.31
2023-02-09T20:03:52.555Z,-0.48
2023-02-09T20:06:20.549Z,-0.55
2023-02-09T20:08:48.500Z,-0.48
2023-02-09T20:11:19.318Z,-0.48
2023-02-09T20:13:49.845Z,-0.51
2023-02-09T20:16:22.575Z,-0.49
2023-02-09T20:18:51.436Z,-0.49
2023-02-09T20:21:20.614Z,-0.45
2023-02-09T20:23:48.997Z,-0.49
2023-02-09T20:26:19.459Z,-0.56
2023-02-09T20:28:48.846Z,-0.57
2023-02-09T20:31:21.446Z,-0.61
2023-02-09T20:33:49.683Z,-0.64
2023-02-09T20:36:18.513Z,-0.66
2023-02-09T20:38:46.357Z,-0.66
2023-02-09T20:41:16.387Z,-0.67
2023-02-09T20:44:02.122Z,-0.67
2023-02-09T20:46:50.716Z,-0.64
2023-02-09T20:49:19.073Z,-0.74
2023-02-09T20:51:47.378Z,-0.73
2023-02-09T20:54:15.605Z,-0.75
2023-02-09T20:56:44.073Z,-0.79
2023-02-09T20:59:13.119Z,-0.82
2023-02-09T21:01:42.628Z,-0.81
2023-02-09T21:04:10.968Z,-0.81
2023-02-09T21:06:39.513Z,-0.83
2023-02-09T21:09:08.924Z,-0.81
2023-02-09T21:11:36.941Z,-0.77
2023-02-09T21:14:04.720Z,-0.74
2023-02-09T21:16:33.482Z,-0.75
2023-02-09T21:19:03.282Z,-0.77
2023-02-09T21:21:31.311Z,-0.80
2023-02-09T21:23:59.290Z,-0.82
2023-02-09T21:26:28.772Z,-0.85
2023-02-09T21:28:58.157Z,-0.90
2023-02-09T21:31:28.376Z,-0.95
2023-02-09T21:33:56.875Z,-0.96
2023-02-09T21:36:26.043Z,-1.00
2023-02-09T21:38:54.048Z,-1.02
2023-02-09T21:41:43.081Z,-1.06
2023-02-09T21:44:12.055Z,-1.12
2023-02-09T21:46:39.939Z,-1.12
2023-02-09T21:49:08.293Z,-1.11
2023-02-09T21:51:37.890Z,-1.07
2023-02-09T21:54:06.111Z,-1.08
2023-02-09T21:56:34.026Z,-1.13
2023-02-09T21:59:01.742Z,-1.16
2023-02-09T22:01:31.396Z,-1.16
2023-02-09T22:04:00.644Z,-1.18
2023-02-09T22:06:31.007Z,-1.18
2023-02-09T22:09:02.819Z,-1.20
2023-02-09T22:11:30.861Z,-1.24
2023-02-09T22:13:59.147Z,-1.28
2023-02-09T22:16:27.011Z,-1.31
2023-02-09T22:18:54.709Z,-1.40
2023-02-09T22:21:22.606Z,-1.46
2023-02-09T22:23:50.324Z,-1.53
2023-02-09T22:26:19.638Z,-1.57
2023-02-09T22:28:47.655Z,-1.57
2023-02-09T22:31:17.054Z,-1.54
2023-02-09T22:33:45.432Z,-1.56
2023-02-09T22:36:14.936Z,-1.55
2023-02-09T22:38:44.798Z,-1.51
2023-02-09T22:41:22.156Z,-1.51
2023-02-09T22:43:53.005Z,-1.53
2023-02-09T22:46:22.362Z,-1.55
2023-02-09T22:48:53.871Z,-1.53
2023-02-09T22:51:22.116Z,-1.53
2023-02-09T22:53:49.753Z,-1.49
2023-02-09T22:56:18.041Z,-1.49
2023-02-09T22:58:45.749Z,-1.47
2023-02-09T23:01:15.341Z,-1.50
2023-02-09T23:03:43.209Z,-1.52
2023-02-09T23:06:14.878Z,-1.54
2023-02-09T23:08:42.569Z,-1.56
2023-02-09T23:11:12.728Z,-1.55
2023-02-09T23:13:41.084Z,-1.56
2023-02-09T23:16:11.098Z,-1.54
2023-02-09T23:18:41.336Z,-1.55
2023-02-09T23:21:09.555Z,-1.57
2023-02-09T23:23:37.619Z,-1.74
2023-02-09T23:26:05.512Z,-1.91
2023-02-09T23:28:33.692Z,-2.06
2023-02-09T23:31:05.429Z,-2.01
2023-02-09T23:33:34.258Z,-2.01
2023-02-09T23:36:05.392Z,-2.06
2023-02-09T23:38:33.560Z,-2.13
2023-02-09T23:41:05.584Z,-2.21
2023-02-09T23:43:33.318Z,-2.42
2023-02-09T23:46:01.745Z,-2.44
2023-02-09T23:48:29.815Z,-2.43
2023-02-09T23:51:00.388Z,-2.45
2023-02-09T23:53:30.570Z,-2.48
2023-02-09T23:56:03.671Z,-2.49
2023-02-09T23:58:31.896Z,-2.46
